Time;durP1;ratioP1;P1;durP2;ratioP2;P2;SDS_P1;SDS_P2;PMS_P1;PMS_P2;Temp;Humidity;BMP_temperature;BMP_pressure;BME280_temperature;BME280_humidity;BME280_pressure;Samples;Min_cycle;Max_cycle;Signal;HPM_P1;HPM_P2
2023/02/03 00:01:15;;;;;;;7.63;1.88;;;10.30;86.90;;;;;;5042032;28;20558;-64
2023/02/03 00:03:41;;;;;;;5.43;1.95;;;10.30;86.80;;;;;;5040520;28;20369;-63
2023/02/03 00:06:07;;;;;;;11.93;2.80;;;10.30;86.80;;;;;;5050262;28;20055;-67
2023/02/03 00:08:33;;;;;;;6.68;1.52;;;10.30;86.70;;;;;;5045817;28;20063;-69
2023/02/03 00:10:59;;;;;;;9.48;1.77;;;10.40;86.70;;;;;;5048668;28;20108;-66
2023/02/03 00:13:25;;;;;;;9.80;1.65;;;10.40;86.70;;;;;;5045229;28;20111;-67
2023/02/03 00:15:51;;;;;;;2.95;1.25;;;10.40;86.50;;;;;;5046311;28;20032;-67
2023/02/03 00:18:17;;;;;;;5.13;1.90;;;10.40;86.50;;;;;;5049055;28;20029;-65
2023/02/03 00:20:42;;;;;;;1.60;1.25;;;10.40;86.50;;;;;;5038729;28;20480;-67
2023/02/03 00:23:11;;;;;;;4.43;1.48;;;10.40;86.40;;;;;;5041864;28;20396;-67
2023/02/03 00:25:37;;;;;;;2.05;1.05;;;10.40;86.40;;;;;;5045772;28;20025;-67
2023/02/03 00:28:04;;;;;;;4.35;2.10;;;10.40;86.40;;;;;;5036903;28;20079;-68
2023/02/03 00:30:30;;;;;;;5.63;1.40;;;10.40;86.30;;;;;;5073911;28;20498;-63
2023/02/03 00:32:55;;;;;;;2.08;1.30;;;10.40;86.30;;;;;;5044173;28;20067;-68
2023/02/03 00:35:21;;;;;;;3.15;1.73;;;10.40;86.30;;;;;;5042980;28;20036;-66
2023/02/03 00:37:55;;;;;;;3.70;1.85;;;10.50;86.30;;;;;;5039136;28;20492;-67
2023/02/03 00:40:23;;;;;;;3.55;1.63;;;10.50;86.00;;;;;;5046739;28;20037;-66
2023/02/03 00:42:49;;;;;;;3.72;1.50;;;10.50;86.10;;;;;;5040007;28;20025;-66
2023/02/03 00:45:14;;;;;;;8.00;2.15;;;10.50;86.00;;;;;;5037892;28;20079;-67
2023/02/03 00:47:40;;;;;;;2.20;1.27;;;10.50;85.80;;;;;;5048314;28;20032;-65
2023/02/03 00:50:06;;;;;;;1.88;1.30;;;10.50;85.70;;;;;;5048125;28;20072;-66
2023/02/03 00:52:32;;;;;;;3.03;1.80;;;10.50;85.60;;;;;;5050121;28;20365;-63
2023/02/03 00:54:58;;;;;;;3.83;1.52;;;10.50;85.60;;;;;;5043344;28;20036;-63
2023/02/03 00:57:23;;;;;;;2.50;1.55;;;10.60;85.50;;;;;;5043372;28;20040;-63
2023/02/03 00:59:49;;;;;;;6.00;1.70;;;10.60;85.50;;;;;;5047020;28;20480;-63
2023/02/03 01:02:15;;;;;;;5.00;1.77;;;10.60;85.50;;;;;;5038304;28;20493;-66
2023/02/03 01:04:42;;;;;;;4.10;1.67;;;10.60;85.30;;;;;;5045118;28;20091;-66
2023/02/03 01:07:08;;;;;;;4.00;1.48;;;10.60;85.20;;;;;;5042496;28;20449;-67
2023/02/03 01:09:35;;;;;;;3.42;1.42;;;10.60;85.10;;;;;;5048140;28;20593;-66
2023/02/03 01:12:01;;;;;;;5.10;1.35;;;10.60;85.10;;;;;;5039335;28;20030;-67
2023/02/03 01:14:26;;;;;;;5.90;1.60;;;10.60;85.10;;;;;;5044664;28;20055;-63
2023/02/03 01:16:52;;;;;;;4.75;1.67;;;10.60;85.00;;;;;;5047011;28;20158;-67
2023/02/03 01:19:18;;;;;;;3.85;1.20;;;10.60;84.90;;;;;;5047325;28;20028;-67
2023/02/03 01:21:44;;;;;;;2.72;1.60;;;10.60;84.90;;;;;;5046643;28;20079;-67
2023/02/03 01:24:10;;;;;;;10.55;1.10;;;10.60;84.90;;;;;;5045670;28;20086;-67
2023/02/03 01:26:35;;;;;;;5.43;1.75;;;10.60;84.80;;;;;;5047590;28;20069;-64
2023/02/03 01:29:01;;;;;;;8.30;1.85;;;10.60;84.80;;;;;;5048610;28;20118;-67
2023/02/03 01:31:38;;;;;;;4.10;1.80;;;10.60;84.70;;;;;;5044960;28;20401;-63
2023/02/03 01:34:05;;;;;;;4.80;1.83;;;10.70;84.50;;;;;;5049350;28;20029;-63
2023/02/03 01:36:33;;;;;;;7.00;2.15;;;10.60;84.30;;;;;;5047627;28;20028;-63
2023/02/03 01:38:59;;;;;;;5.63;1.33;;;10.60;84.40;;;;;;5052160;28;20103;-63
2023/02/03 01:41:36;;;;;;;7.68;1.40;;;10.70;84.30;;;;;;5047049;28;20100;-63
2023/02/03 01:44:34;;;;;;;4.53;1.85;;;10.60;84.20;;;;;;5044875;28;20538;-67
2023/02/03 01:47:02;;;;;;;3.47;1.52;;;10.60;84.20;;;;;;5041276;28;20043;-63
2023/02/03 01:49:32;;;;;;;3.22;1.67;;;10.60;84.20;;;;;;5039506;28;20044;-63
2023/02/03 01:51:58;;;;;;;4.18;1.45;;;10.60;84.20;;;;;;5048773;28;20028;-67
2023/02/03 01:54:38;;;;;;;1.83;1.20;;;10.60;84.10;;;;;;5043815;28;20091;-65
2023/02/03 01:57:09;;;;;;;2.72;1.42;;;10.70;84.00;;;;;;5064813;28;20361;-66
2023/02/03 01:59:35;;;;;;;2.25;0.82;;;10.60;83.90;;;;;;5039033;28;20033;-63
2023/02/03 02:02:03;;;;;;;5.38;1.20;;;10.60;84.00;;;;;;5049015;28;20365;-63
2023/02/03 02:04:57;;;;;;;2.80;1.40;;;10.60;84.00;;;;;;5046654;28;20053;-64
2023/02/03 02:07:24;;;;;;;4.50;2.05;;;10.70;83.90;;;;;;5045559;28;20028;-64
2023/02/03 02:09:50;;;;;;;4.30;2.38;;;10.60;83.80;;;;;;5038269;28;20401;-67
2023/02/03 02:12:16;;;;;;;4.38;1.48;;;10.60;83.80;;;;;;5072368;28;20124;-67
2023/02/03 02:14:43;;;;;;;1.90;1.02;;;10.60;83.80;;;;;;5047191;28;20506;-66
2023/02/03 02:17:33;;;;;;;3.55;1.30;;;10.70;83.80;;;;;;5044981;28;20033;-66
2023/02/03 02:20:25;;;;;;;4.75;1.70;;;10.70;83.80;;;;;;5038002;28;20328;-67
2023/02/03 02:23:05;;;;;;;9.98;1.73;;;10.60;83.80;;;;;;5041323;28;20048;-66
2023/02/03 02:25:46;;;;;;;1.90;1.27;;;10.60;83.90;;;;;;5049096;28;20064;-68
2023/02/03 02:28:46;;;;;;;4.57;0.98;;;10.60;84.00;;;;;;5041880;28;20036;-66
2023/02/03 02:31:41;;;;;;;2.78;1.45;;;10.60;83.80;;;;;;5042135;28;20025;-67
2023/02/03 02:34:11;;;;;;;2.78;1.50;;;10.60;83.90;;;;;;5044189;28;20105;-67
2023/02/03 02:37:03;;;;;;;1.80;1.00;;;10.60;84.10;;;;;;5041472;28;20029;-67
2023/02/03 02:39:37;;;;;;;;;;;10.60;83.90;;;;;;5043590;28;20548;-62
2023/02/03 02:42:15;;;;;;;3.03;1.25;;;10.60;83.90;;;;;;5060441;28;19916;-62
2023/02/03 02:44:57;;;;;;;8.52;1.30;;;10.60;83.90;;;;;;5041328;28;20021;-64
2023/02/03 02:47:23;;;;;;;6.72;1.92;;;10.60;83.70;;;;;;5038660;28;20025;-63
2023/02/03 02:50:02;;;;;;;22.13;1.38;;;10.60;83.60;;;;;;5044551;28;20031;-63
2023/02/03 02:52:31;;;;;;;7.00;1.63;;;10.60;83.40;;;;;;5040961;28;20029;-62
2023/02/03 02:55:04;;;;;;;3.42;1.25;;;10.60;83.40;;;;;;5036910;28;20108;-62
2023/02/03 02:57:32;;;;;;;2.03;1.00;;;10.70;83.40;;;;;;5045575;28;20048;-62
2023/02/03 02:59:58;;;;;;;5.07;1.52;;;10.70;83.30;;;;;;5049536;28;20033;-62
2023/02/03 03:02:34;;;;;;;1.58;0.95;;;10.60;83.10;;;;;;5047628;28;20036;-63
2023/02/03 03:05:04;;;;;;;4.18;1.15;;;10.70;82.70;;;;;;5052867;28;20388;-63
2023/02/03 03:07:38;;;;;;;5.40;2.00;;;10.70;82.70;;;;;;5040170;28;20079;-63
2023/02/03 03:10:09;;;;;;;3.03;1.27;;;10.70;82.50;;;;;;5049317;28;20040;-66
2023/02/03 03:12:40;;;;;;;2.83;1.30;;;10.70;82.30;;;;;;5038497;28;20118;-65
2023/02/03 03:15:11;;;;;;;4.78;1.25;;;10.70;82.40;;;;;;5049258;28;20053;-67
2023/02/03 03:17:44;;;;;;;1.27;1.10;;;10.70;82.40;;;;;;5045895;28;20033;-67
2023/02/03 03:20:20;;;;;;;2.38;1.15;;;10.70;82.10;;;;;;5047304;28;20108;-67
2023/02/03 03:22:52;;;;;;;4.30;1.40;;;10.80;82.20;;;;;;5048107;28;20137;-67
2023/02/03 03:25:23;;;;;;;1.40;0.88;;;10.80;82.10;;;;;;5050428;28;20052;-67
2023/02/03 03:27:54;;;;;;;5.45;1.02;;;10.80;82.00;;;;;;5052808;28;20107;-67
2023/02/03 03:30:24;;;;;;;3.30;1.38;;;10.80;81.90;;;;;;5047629;28;20029;-67
2023/02/03 03:32:50;;;;;;;2.72;1.27;;;10.80;81.90;;;;;;5041594;28;20074;-67
2023/02/03 03:35:17;;;;;;;3.53;1.42;;;10.70;81.90;;;;;;5049154;28;20029;-66
2023/02/03 03:37:55;;;;;;;3.70;2.00;;;10.80;81.90;;;;;;5043907;28;20372;-66
2023/02/03 03:40:29;;;;;;;5.85;1.67;;;10.70;81.90;;;;;;5044548;28;20113;-67
2023/02/03 03:43:26;;;;;;;5.00;1.65;;;10.70;81.90;;;;;;5047960;28;20296;-67
2023/02/03 03:45:59;;;;;;;5.00;1.83;;;10.80;81.90;;;;;;5064260;28;20104;-66
2023/02/03 03:48:35;;;;;;;6.60;2.40;;;10.70;81.90;;;;;;5045419;28;20029;-66
2023/02/03 03:51:18;;;;;;;6.32;1.60;;;10.70;82.00;;;;;;5048772;28;20159;-67
2023/02/03 03:53:45;;;;;;;;;;;10.80;82.00;;;;;;5046127;28;20029;-66
2023/02/03 03:56:18;;;;;;;2.78;0.65;;;10.80;82.00;;;;;;5041930;28;20383;-67
2023/02/03 03:58:48;;;;;;;1.65;0.88;;;10.80;82.00;;;;;;5048802;28;20478;-66
2023/02/03 04:01:15;;;;;;;0.75;0.75;;;10.80;81.90;;;;;;5058657;28;20021;-66
2023/02/03 04:03:46;;;;;;;3.20;1.17;;;10.80;81.90;;;;;;5048060;28;20064;-62
2023/02/03 04:06:12;;;;;;;3.03;1.17;;;10.80;81.70;;;;;;5050184;28;20017;-63
2023/02/03 04:08:38;;;;;;;3.17;1.23;;;10.80;81.70;;;;;;5043537;28;20044;-62
2023/02/03 04:11:04;;;;;;;12.20;1.50;;;10.80;81.60;;;;;;5043869;28;20037;-66
2023/02/03 04:13:30;;;;;;;3.58;0.98;;;10.80;81.60;;;;;;5046607;28;20045;-67
2023/02/03 04:15:55;;;;;;;1.58;1.00;;;10.90;81.70;;;;;;5067561;28;20480;-66
2023/02/03 04:18:21;;;;;;;2.67;1.08;;;10.90;81.70;;;;;;5047573;28;20066;-67
2023/02/03 04:20:47;;;;;;;7.35;1.63;;;10.90;81.50;;;;;;5046733;28;20464;-67
2023/02/03 04:23:12;;;;;;;4.15;1.70;;;10.90;81.40;;;;;;5047865;28;20071;-67
2023/02/03 04:25:38;;;;;;;6.00;1.80;;;10.90;81.40;;;;;;5082177;28;20052;-67
2023/02/03 04:28:05;;;;;;;6.68;1.30;;;10.90;81.50;;;;;;5045465;28;20091;-66
2023/02/03 04:30:31;;;;;;;3.30;1.30;;;10.80;81.30;;;;;;5044460;28;20515;-66
2023/02/03 04:32:57;;;;;;;3.65;1.30;;;10.90;81.60;;;;;;5047019;28;20052;-67
2023/02/03 04:35:23;;;;;;;4.40;1.23;;;10.90;81.50;;;;;;5056080;28;20376;-67
2023/02/03 04:37:48;;;;;;;3.17;1.48;;;10.90;81.50;;;;;;5049159;28;20471;-67
2023/02/03 04:40:14;;;;;;;9.05;1.48;;;10.90;81.70;;;;;;5037337;28;20033;-66
2023/02/03 04:42:40;;;;;;;5.03;1.83;;;10.80;81.50;;;;;;5076069;28;20047;-66
2023/02/03 04:45:08;;;;;;;4.32;1.35;;;10.80;81.70;;;;;;5043465;28;20025;-67
2023/02/03 04:47:34;;;;;;;4.55;1.65;;;10.90;81.80;;;;;;5042046;28;20029;-67
2023/02/03 04:50:01;;;;;;;2.80;1.60;;;10.80;81.70;;;;;;5042969;28;20079;-67
2023/02/03 04:52:27;;;;;;;3.50;1.25;;;10.90;81.80;;;;;;5041080;28;20076;-67
2023/02/03 04:54:52;;;;;;;3.50;1.65;;;10.80;81.70;;;;;;5040671;28;20057;-67
2023/02/03 04:57:18;;;;;;;2.70;0.82;;;10.90;81.70;;;;;;5047904;28;20047;-67
2023/02/03 04:59:44;;;;;;;6.28;1.52;;;10.90;81.60;;;;;;5050518;28;20112;-67
2023/02/03 05:02:09;;;;;;;3.10;0.80;;;10.90;81.50;;;;;;5046721;28;20094;-67
2023/02/03 05:04:35;;;;;;;3.22;1.10;;;10.90;81.60;;;;;;5055114;28;20400;-67
2023/02/03 05:07:01;;;;;;;2.03;1.38;;;10.90;81.60;;;;;;5048739;28;20032;-66
2023/02/03 05:09:27;;;;;;;2.05;1.25;;;10.90;81.50;;;;;;5050437;28;20041;-67
2023/02/03 05:11:53;;;;;;;9.05;1.25;;;10.90;81.50;;;;;;5031570;28;20026;-67
2023/02/03 05:14:19;;;;;;;2.13;1.33;;;10.90;81.50;;;;;;5037279;28;20534;-66
2023/02/03 05:16:45;;;;;;;2.90;1.02;;;10.90;81.20;;;;;;5026946;28;20034;-67
2023/02/03 05:19:10;;;;;;;4.97;1.25;;;10.90;81.30;;;;;;5070682;28;20110;-66
2023/02/03 05:21:36;;;;;;;2.63;1.20;;;10.90;81.20;;;;;;5040770;28;20029;-67
2023/02/03 05:24:05;;;;;;;5.40;1.75;;;10.90;81.10;;;;;;5072528;28;20028;-66
2023/02/03 05:26:31;;;;;;;3.72;1.38;;;11.00;81.10;;;;;;5043919;28;20040;-66
2023/02/03 05:28:57;;;;;;;4.30;1.13;;;10.90;81.10;;;;;;5058972;28;20080;-67
2023/02/03 05:31:23;;;;;;;1.90;1.05;;;11.00;81.20;;;;;;5044126;28;20029;-66
2023/02/03 05:33:49;;;;;;;7.07;1.77;;;10.90;81.20;;;;;;5042989;28;20086;-66
2023/02/03 05:36:14;;;;;;;4.70;1.08;;;11.00;81.00;;;;;;5045590;28;20037;-67
2023/02/03 05:38:41;;;;;;;2.70;0.85;;;11.00;81.20;;;;;;5042492;28;20416;-66
2023/02/03 05:43:53;;;;;;;2.03;0.95;;;10.90;81.30;;;;;;5041372;28;20128;-67
2023/02/03 05:46:19;;;;;;;2.75;1.33;;;10.90;81.30;;;;;;5039697;28;20107;-67
2023/02/03 05:48:45;;;;;;;8.07;1.38;;;10.90;81.40;;;;;;5041986;28;20029;-66
2023/02/03 05:51:10;;;;;;;2.03;1.15;;;10.90;81.30;;;;;;5030876;28;20040;-67
2023/02/03 05:53:36;;;;;;;3.92;1.52;;;10.90;81.40;;;;;;5042381;28;20025;-66
2023/02/03 05:56:02;;;;;;;2.67;0.95;;;10.90;81.30;;;;;;5040786;28;20082;-66
2023/02/03 05:58:27;;;;;;;2.47;1.08;;;10.90;81.40;;;;;;5046879;28;20387;-63
2023/02/03 06:00:53;;;;;;;0.93;0.90;;;10.90;81.90;;;;;;5044521;28;20097;-62
2023/02/03 06:03:19;;;;;;;3.22;1.40;;;10.90;81.50;;;;;;5074933;28;20056;-64
2023/02/03 06:05:44;;;;;;;7.72;1.05;;;10.90;81.40;;;;;;5043708;28;20041;-63
2023/02/03 06:08:10;;;;;;;2.42;1.52;;;10.90;81.40;;;;;;5057321;28;20044;-66
2023/02/03 06:10:35;;;;;;;3.72;1.40;;;10.90;81.50;;;;;;5037467;28;20045;-62
2023/02/03 06:13:13;;;;;;;4.18;1.38;;;10.90;81.60;;;;;;5036817;28;20030;-63
2023/02/03 06:15:39;;;;;;;1.38;0.80;;;10.90;81.40;;;;;;5035644;28;20029;-62
2023/02/03 06:18:06;;;;;;;8.45;1.63;;;10.90;81.50;;;;;;5046630;28;20028;-63
2023/02/03 06:20:31;;;;;;;7.30;0.90;;;10.90;81.50;;;;;;5042539;28;20029;-64
2023/02/03 06:22:57;;;;;;;4.13;0.90;;;10.90;81.40;;;;;;5045593;28;20103;-67
2023/02/03 06:25:23;;;;;;;2.15;1.17;;;10.90;81.40;;;;;;5047214;28;20108;-66
2023/02/03 06:27:49;;;;;;;5.28;1.13;;;10.90;81.50;;;;;;5049594;28;20104;-66
2023/02/03 06:30:16;;;;;;;2.10;1.35;;;10.90;81.60;;;;;;5043871;28;20033;-66
2023/02/03 06:32:41;;;;;;;1.95;0.77;;;10.90;81.60;;;;;;5070695;28;20124;-67
2023/02/03 06:35:07;;;;;;;2.55;0.98;;;10.90;81.50;;;;;;5048047;28;20128;-67
2023/02/03 06:37:34;;;;;;;4.38;1.42;;;10.90;81.60;;;;;;5041542;28;20044;-67
2023/02/03 06:40:00;;;;;;;4.32;1.73;;;10.90;81.50;;;;;;5043341;28;20068;-67
2023/02/03 06:42:26;;;;;;;6.50;1.55;;;10.90;81.50;;;;;;5064058;28;20040;-67
2023/02/03 06:44:52;;;;;;;3.22;1.23;;;10.90;81.60;;;;;;5062465;28;20030;-67
2023/02/03 06:47:18;;;;;;;4.00;1.42;;;10.90;81.60;;;;;;5048834;28;20063;-67
2023/02/03 06:49:43;;;;;;;6.50;1.08;;;10.90;81.60;;;;;;5037908;28;20108;-67
2023/02/03 06:52:09;;;;;;;2.00;1.15;;;10.90;81.70;;;;;;5050393;28;20036;-67
2023/02/03 06:54:35;;;;;;;1.75;1.02;;;10.90;81.60;;;;;;5045141;28;20041;-67
2023/02/03 06:57:00;;;;;;;2.47;1.13;;;10.90;81.60;;;;;;5044278;28;20472;-63
2023/02/03 06:59:26;;;;;;;3.25;1.35;;;10.90;81.60;;;;;;5067837;28;20505;-62
2023/02/03 07:01:52;;;;;;;2.08;1.25;;;10.90;81.60;;;;;;5044158;28;20526;-63
2023/02/03 07:04:17;;;;;;;4.60;1.35;;;10.90;81.80;;;;;;5044266;28;20083;-72
2023/02/03 07:06:43;;;;;;;4.82;2.03;;;10.80;81.70;;;;;;5047705;28;20026;-62
2023/02/03 07:09:09;;;;;;;3.28;1.35;;;10.90;81.80;;;;;;5036277;28;20092;-62
2023/02/03 07:11:34;;;;;;;5.72;1.13;;;10.90;81.70;;;;;;5043714;28;20456;-62
2023/02/03 07:14:01;;;;;;;4.22;1.52;;;10.90;81.70;;;;;;5052457;28;20029;-72
2023/02/03 07:16:26;;;;;;;6.40;1.17;;;10.90;81.70;;;;;;5030898;28;20056;-72
2023/02/03 07:18:52;;;;;;;2.63;1.10;;;10.90;81.60;;;;;;5052837;28;20497;-72
2023/02/03 07:21:18;;;;;;;2.15;1.40;;;10.90;81.70;;;;;;5042632;28;20032;-71
2023/02/03 07:23:47;;;;;;;1.83;1.20;;;10.90;81.70;;;;;;5048348;28;20041;-62
2023/02/03 07:26:13;;;;;;;3.72;1.25;;;10.90;81.80;;;;;;5042862;28;20021;-71
2023/02/03 07:28:39;;;;;;;1.95;1.27;;;10.80;81.80;;;;;;5050055;28;20032;-71
2023/02/03 07:31:06;;;;;;;1.80;1.10;;;10.90;81.90;;;;;;5041552;28;20029;-71
2023/02/03 07:33:32;;;;;;;3.70;1.08;;;10.90;81.90;;;;;;5041013;28;20030;-71
2023/02/03 07:35:59;;;;;;;2.75;1.17;;;10.90;81.90;;;;;;5070870;28;20132;-71
2023/02/03 07:38:26;;;;;;;1.35;1.25;;;10.90;81.80;;;;;;5043416;28;20119;-70
2023/02/03 07:40:52;;;;;;;1.65;1.13;;;10.90;81.90;;;;;;5041458;28;20032;-70
2023/02/03 07:43:18;;;;;;;1.48;1.05;;;10.90;81.90;;;;;;5050579;28;20040;-74
2023/02/03 07:45:44;;;;;;;2.60;1.35;;;10.90;81.90;;;;;;5044022;28;20025;-71
2023/02/03 07:48:10;;;;;;;2.30;1.40;;;10.80;81.90;;;;;;5049660;28;20025;-73
2023/02/03 07:50:36;;;;;;;2.28;1.30;;;10.80;82.00;;;;;;5053791;28;20086;-73
2023/02/03 07:53:02;;;;;;;2.00;1.15;;;10.80;81.90;;;;;;5046093;28;20025;-73
2023/02/03 07:55:28;;;;;;;4.82;1.63;;;10.80;82.00;;;;;;5046988;28;20491;-73
2023/02/03 07:57:56;;;;;;;4.70;0.85;;;10.80;82.00;;;;;;5051294;28;20020;-63
2023/02/03 08:00:22;;;;;;;1.33;0.82;;;10.90;82.10;;;;;;5045030;28;20370;-64
2023/02/03 08:02:48;;;;;;;2.78;1.60;;;10.90;82.00;;;;;;5038719;28;20029;-63
2023/02/03 08:05:15;;;;;;;5.13;1.30;;;10.90;81.90;;;;;;5048284;28;20499;-64
2023/02/03 08:07:41;;;;;;;4.07;1.25;;;10.90;81.70;;;;;;5050649;28;20029;-63
2023/02/03 08:10:08;;;;;;;1.67;1.20;;;10.90;81.70;;;;;;5047363;28;20404;-63
2023/02/03 08:12:34;;;;;;;1.55;1.00;;;11.00;81.90;;;;;;5057226;28;20080;-63
2023/02/03 08:15:00;;;;;;;5.45;1.13;;;11.00;81.80;;;;;;5051814;28;20029;-73
2023/02/03 08:17:26;;;;;;;2.70;1.33;;;11.00;81.60;;;;;;5047405;28;20496;-64
2023/02/03 08:19:51;;;;;;;3.30;1.35;;;11.10;81.70;;;;;;5042566;28;20083;-64
2023/02/03 08:22:18;;;;;;;8.18;1.00;;;11.00;81.60;;;;;;5055795;28;20041;-64
2023/02/03 08:24:47;;;;;;;3.47;1.80;;;11.10;81.60;;;;;;5038709;28;20502;-62
2023/02/03 08:27:15;;;;;;;6.13;1.20;;;11.10;81.60;;;;;;5051441;28;20108;-72
2023/02/03 08:29:42;;;;;;;1.45;1.23;;;11.10;81.70;;;;;;5051122;28;20074;-62
2023/02/03 08:32:13;;;;;;;1.75;1.10;;;11.10;81.50;;;;;;5048375;28;20094;-64
2023/02/03 08:34:39;;;;;;;5.03;1.27;;;11.10;81.40;;;;;;5039665;28;20982;-67
2023/02/03 08:37:05;;;;;;;1.80;1.02;;;11.10;81.40;;;;;;5046610;28;20025;-64
2023/02/03 08:39:32;;;;;;;4.82;1.48;;;11.10;81.40;;;;;;5050467;28;20127;-62
2023/02/03 08:41:58;;;;;;;4.18;1.20;;;11.10;81.50;;;;;;5046475;28;20048;-61
2023/02/03 08:44:24;;;;;;;1.90;1.10;;;11.20;81.40;;;;;;5048105;28;20464;-63
2023/02/03 08:46:51;;;;;;;1.38;0.82;;;11.20;81.40;;;;;;5045040;28;20021;-62
2023/02/03 08:49:17;;;;;;;5.35;1.67;;;11.20;81.40;;;;;;5045711;28;20047;-61
2023/02/03 08:51:47;;;;;;;11.18;0.98;;;11.30;81.30;;;;;;5050352;28;20388;-62
2023/02/03 08:54:13;;;;;;;0.82;0.70;;;11.30;81.30;;;;;;5047997;28;20451;-62
2023/02/03 08:56:40;;;;;;;3.88;1.35;;;11.30;81.20;;;;;;5048077;28;20043;-67
2023/02/03 08:59:06;;;;;;;6.43;1.02;;;11.30;81.10;;;;;;5045352;28;20033;-68
2023/02/03 09:01:34;;;;;;;4.45;1.08;;;11.30;81.10;;;;;;5038003;28;20325;-67
2023/02/03 09:04:05;;;;;;;3.60;1.02;;;11.30;81.10;;;;;;5046944;28;20033;-67
2023/02/03 09:06:31;;;;;;;1.80;1.20;;;11.40;81.10;;;;;;5039759;28;20487;-67
2023/02/03 09:08:57;;;;;;;2.00;1.40;;;11.40;81.10;;;;;;5049217;28;20052;-66
2023/02/03 09:11:22;;;;;;;5.65;0.98;;;11.40;81.10;;;;;;5043498;28;20041;-67
2023/02/03 09:13:49;;;;;;;5.28;1.08;;;11.40;81.00;;;;;;5072615;28;20037;-67
2023/02/03 09:16:17;;;;;;;11.90;1.77;;;11.40;81.00;;;;;;5048236;28;20044;-62
2023/02/03 09:18:44;;;;;;;2.42;0.88;;;11.40;81.00;;;;;;5038781;28;20021;-61
2023/02/03 09:21:11;;;;;;;6.50;1.65;;;11.50;80.90;;;;;;5044220;28;20070;-67
2023/02/03 09:23:37;;;;;;;3.88;1.45;;;11.50;80.80;;;;;;5039787;28;20490;-68
2023/02/03 09:26:04;;;;;;;1.45;0.90;;;11.50;80.80;;;;;;5042862;28;20052;-67
2023/02/03 09:28:30;;;;;;;1.90;1.10;;;11.60;80.80;;;;;;5043901;28;20029;-68
2023/02/03 09:31:07;;;;;;;2.17;1.15;;;11.60;80.60;;;;;;5039757;28;20112;-67
2023/02/03 09:33:33;;;;;;;1.83;0.95;;;11.70;80.50;;;;;;5044114;28;20025;-67
2023/02/03 09:35:59;;;;;;;1.40;0.77;;;11.70;80.30;;;;;;5045695;28;20024;-66
2023/02/03 09:38:26;;;;;;;1.63;0.95;;;11.60;80.40;;;;;;5044941;28;20047;-67
2023/02/03 09:41:30;;;;;;;3.00;1.25;;;11.70;81.10;;;;;;5041238;28;20025;-67
2023/02/03 09:44:12;;;;;;;5.43;1.50;;;11.70;80.20;;;;;;5046060;28;20025;-62
2023/02/03 09:46:40;;;;;;;;;;;11.70;80.30;;;;;;5047254;28;20033;-62
2023/02/03 09:49:35;;;;;;;2.58;1.17;;;11.70;80.40;;;;;;5036451;28;19991;-63
2023/02/03 09:52:07;;;;;;;1.52;1.00;;;11.70;80.50;;;;;;5030555;28;20381;-62
2023/02/03 09:55:03;;;;;;;2.00;0.93;;;11.80;80.40;;;;;;5044902;28;20416;-62
2023/02/03 09:57:34;;;;;;;2.63;1.35;;;11.80;80.30;;;;;;5042613;28;20025;-62
2023/02/03 10:00:12;;;;;;;3.35;1.20;;;11.90;80.20;;;;;;5051384;28;20025;-62
2023/02/03 10:03:27;;;;;;;1.88;1.13;;;11.90;80.20;;;;;;5049774;28;20519;-62
2023/02/03 10:06:17;;;;;;;2.75;1.25;;;11.90;80.20;;;;;;5019671;28;20109;-62
2023/02/03 10:09:10;;;;;;;3.08;1.38;;;11.90;79.90;;;;;;5021359;28;20025;-62
2023/02/03 10:12:20;;;;;;;1.13;0.60;;;12.00;80.00;;;;;;5054318;28;20037;-62
2023/02/03 10:14:54;;;;;;;2.05;1.10;;;12.00;79.90;;;;;;5042045;28;20052;-62
2023/02/03 10:17:59;;;;;;;2.92;1.38;;;12.00;79.70;;;;;;5041467;28;20563;-62
2023/02/03 10:20:47;;;;;;;2.95;1.00;;;12.00;79.70;;;;;;5049931;28;20541;-62
2023/02/03 10:23:32;;;;;;;6.53;1.20;;;12.00;79.80;;;;;;5043635;28;20037;-62
2023/02/03 10:26:00;;;;;;;2.92;1.10;;;12.00;79.70;;;;;;5066576;28;20115;-62
2023/02/03 10:28:30;;;;;;;1.63;0.90;;;12.00;79.70;;;;;;5050791;28;20052;-62
2023/02/03 10:30:58;;;;;;;3.15;0.88;;;12.10;79.70;;;;;;5049941;28;20029;-62
2023/02/03 10:33:29;;;;;;;1.73;0.88;;;12.10;79.60;;;;;;5062521;28;20029;-62
2023/02/03 10:35:59;;;;;;;5.00;1.48;;;12.10;79.50;;;;;;5049477;28;20025;-66
2023/02/03 10:39:16;;;;;;;4.05;1.17;;;12.10;79.40;;;;;;5048177;28;20025;-67
2023/02/03 10:41:41;;;;;;;1.40;1.20;;;12.20;79.30;;;;;;5027969;28;20037;-67
2023/02/03 10:44:11;;;;;;;1.50;0.85;;;12.10;79.30;;;;;;5039101;28;20041;-67
2023/02/03 10:46:39;;;;;;;4.30;1.05;;;12.10;79.40;;;;;;5037210;28;20507;-67
2023/02/03 10:49:04;;;;;;;1.10;0.63;;;12.20;79.40;;;;;;5050696;28;20059;-67
2023/02/03 10:51:41;;;;;;;3.92;0.77;;;12.20;79.20;;;;;;5046539;28;20061;-67
2023/02/03 10:54:28;;;;;;;1.45;1.00;;;12.20;79.20;;;;;;5046755;28;20033;-67
2023/02/03 10:56:56;;;;;;;7.32;1.70;;;12.20;79.20;;;;;;5043872;28;20068;-71
2023/02/03 10:59:30;;;;;;;7.28;2.28;;;12.20;79.30;;;;;;5049505;28;20021;-67
2023/02/03 11:01:56;;;;;;;2.13;1.10;;;12.20;79.10;;;;;;5050895;28;20537;-67
2023/02/03 11:04:31;;;;;;;4.85;0.75;;;12.20;79.20;;;;;;5048283;28;20025;-67
2023/02/03 11:07:21;;;;;;;1.17;0.73;;;12.20;79.20;;;;;;5053504;28;20481;-67
2023/02/03 11:09:47;;;;;;;1.48;0.80;;;12.30;79.30;;;;;;5040943;28;20045;-67
2023/02/03 11:12:15;;;;;;;2.33;1.02;;;12.20;78.90;;;;;;5049013;28;20045;-67
2023/02/03 11:14:51;;;;;;;1.05;0.82;;;12.30;79.10;;;;;;5046074;28;20075;-67
2023/02/03 11:17:26;;;;;;;0.75;0.70;;;12.30;78.80;;;;;;5077203;28;20530;-67
2023/02/03 11:19:54;;;;;;;2.78;1.00;;;12.30;78.80;;;;;;5049160;28;20104;-67
2023/02/03 11:22:47;;;;;;;1.13;0.68;;;12.30;79.00;;;;;;5043675;28;20044;-67
2023/02/03 11:25:17;;;;;;;1.83;1.10;;;12.30;79.00;;;;;;5045800;28;20057;-67
2023/02/03 11:27:43;;;;;;;0.93;0.75;;;12.30;79.10;;;;;;5050964;28;20025;-62
2023/02/03 11:30:15;;;;;;;0.95;0.70;;;12.30;79.20;;;;;;5041051;28;20057;-67
2023/02/03 11:32:42;;;;;;;;;;;12.30;78.90;;;;;;5050362;28;20032;-62
2023/02/03 11:35:17;;;;;;;1.70;1.10;;;12.30;79.00;;;;;;5049228;28;19972;-62
2023/02/03 11:37:47;;;;;;;1.92;0.80;;;12.30;79.00;;;;;;5048138;28;20033;-62
2023/02/03 11:40:18;;;;;;;5.85;1.02;;;12.30;78.90;;;;;;5048497;28;20361;-62
2023/02/03 11:42:58;;;;;;;3.33;0.85;;;12.40;78.90;;;;;;5045911;28;20032;-62
2023/02/03 11:45:27;;;;;;;3.25;1.38;;;12.40;78.80;;;;;;5047890;28;20025;-62
2023/02/03 11:47:55;;;;;;;4.80;0.90;;;12.40;78.80;;;;;;5045655;28;20034;-62
2023/02/03 11:50:54;;;;;;;1.48;1.08;;;12.50;78.70;;;;;;5043653;28;20451;-62
2023/02/03 11:53:38;;;;;;;3.35;1.67;;;12.50;78.30;;;;;;5050778;28;20357;-61
2023/02/03 11:57:01;;;;;;;1.30;0.80;;;12.60;78.40;;;;;;5058491;28;20029;-62
2023/02/03 11:59:40;;;;;;;3.03;0.88;;;12.60;78.20;;;;;;5027211;28;20045;-61
2023/02/03 12:02:36;;;;;;;4.40;0.95;;;12.50;78.30;;;;;;5028172;28;20033;-67
2023/02/03 12:05:43;;;;;;;0.90;0.90;;;12.60;78.30;;;;;;5044754;28;20182;-62
2023/02/03 12:08:23;;;;;;;2.17;0.82;;;12.60;78.30;;;;;;4989043;28;20095;-66
2023/02/03 12:11:10;;;;;;;3.20;1.10;;;12.60;78.10;;;;;;5038105;28;20048;-67
2023/02/03 12:13:44;;;;;;;3.72;0.93;;;12.50;78.30;;;;;;5044162;28;20124;-66
2023/02/03 12:16:37;;;;;;;2.17;0.88;;;12.50;78.20;;;;;;5049670;28;20652;-67
2023/02/03 12:19:17;;;;;;;3.50;0.95;;;12.50;78.20;;;;;;5049495;28;20655;-66
2023/02/03 12:21:54;;;;;;;5.60;1.42;;;12.50;78.30;;;;;;5044890;28;20035;-67
2023/02/03 12:25:13;;;;;;;1.40;1.02;;;12.50;78.40;;;;;;5048418;28;20033;-67
2023/02/03 12:28:01;;;;;;;1.17;0.63;;;12.50;78.40;;;;;;5046881;28;20040;-67
2023/02/03 12:30:52;;;;;;;4.28;0.90;;;12.50;78.50;;;;;;5053106;28;20029;-66
2023/02/03 12:33:30;;;;;;;1.20;1.00;;;12.50;78.90;;;;;;5046342;28;20508;-66
2023/02/03 12:36:25;;;;;;;2.15;1.23;;;12.40;79.70;;;;;;5051573;28;20024;-66
2023/02/03 12:39:10;;;;;;;1.83;0.90;;;12.30;80.40;;;;;;5041063;28;20037;-62
2023/02/03 12:41:45;;;;;;;6.97;1.20;;;12.20;81.20;;;;;;5045291;28;20063;-66
2023/02/03 12:44:26;;;;;;;3.03;1.00;;;12.10;81.80;;;;;;5043850;28;20480;-61
2023/02/03 12:47:11;;;;;;;2.65;1.25;;;12.00;82.30;;;;;;5042898;28;20079;-61
2023/02/03 12:49:46;;;;;;;2.47;1.23;;;11.90;83.00;;;;;;5045348;28;20465;-62
2023/02/03 12:52:29;;;;;;;2.72;1.40;;;11.90;83.60;;;;;;5044252;28;20082;-62
2023/02/03 12:55:38;;;;;;;7.30;2.05;;;11.80;83.90;;;;;;5038634;28;20150;-62
2023/02/03 12:58:18;;;;;;;3.63;1.08;;;11.70;84.00;;;;;;5043980;28;20118;-61
2023/02/03 13:01:08;;;;;;;4.20;1.55;;;11.60;84.10;;;;;;5043230;28;20033;-61
2023/02/03 13:03:57;;;;;;;4.80;1.27;;;11.60;83.90;;;;;;5041904;28;20606;-63
2023/02/03 13:07:01;;;;;;;5.07;1.48;;;11.50;83.90;;;;;;5043308;28;20053;-61
2023/02/03 13:09:26;;;;;;;;;;;11.50;84.10;;;;;;5072325;28;20469;-61
2023/02/03 13:11:52;;;;;;;3.83;1.88;;;11.40;84.20;;;;;;5040244;28;19919;-61
2023/02/03 13:14:24;;;;;;;3.00;1.20;;;11.40;84.30;;;;;;5041435;28;20036;-60